Bowlegs, Oklahoma
Current Conditions -  °F | °C
As of 11:55 PM on Wednesday 17 Dec 2014 (Local Time) from KSNL Reporting Station
Overcast Overcast  
Wind Chill: 41°   Ceiling: 400
Heat Index: 41°   Visibility: 7mi
Dew Point: 41°   Wind: 3mph
Humidity: 100%   Direction: 180°S
Pressure: 30.16"   Gusts: NA
Location:  35.15°N, 96.67°W
Report Text: KSNL 180555Z AUTO 18003KT 7SM OVC004 05/05 A3016 RMK AO2
Loading
Personal Weather Stations






























Interactive Weather Map New forecast layout! Learn more

10-Day Weather Forecast

Advertisements
Track Severe Weather on mobile